Time,TemperatureF,DewpointF,PressureIn,WindDirection,WindDirectionDegrees,WindSpeedMPH,WindSpeedGustMPH,Humidity,HourlyPrecipIn,Conditions,Clouds,dailyrainin,SoftwareType,DateUTC
2013-01-18 00:04:00,26.2,24.5,30.32,WSW,247,0.0,0.0,93,0.00,,,0.00,WUHU21623XXSP,2013-01-18 08:04:00,
2013-01-18 00:09:00,25.9,24.1,30.33,WSW,247,0.0,0.0,93,0.00,,,0.00,WUHU21623XXSP,2013-01-18 08:09:00,
2013-01-18 00:14:00,25.9,24.1,30.32,WSW,247,0.0,0.0,93,0.00,,,0.00,WUHU21623XXSP,2013-01-18 08:14:00,
2013-01-18 00:19:00,25.7,23.9,30.32,WSW,247,0.0,0.0,93,0.00,,,0.00,WUHU21623XXSP,2013-01-18 08:19:00,
2013-01-18 00:24:00,25.7,23.9,30.32,WSW,247,0.0,0.0,93,0.00,,,0.00,WUHU21623XXSP,2013-01-18 08:24:00,
2013-01-18 00:29:00,25.5,23.9,30.32,WSW,247,0.0,0.0,93,0.00,,,0.00,WUHU21623XXSP,2013-01-18 08:29:00,
2013-01-18 00:34:00,25.5,23.8,30.32,WSW,247,0.0,0.0,93,0.00,,,0.00,WUHU21623XXSP,2013-01-18 08:34:00,
2013-01-18 00:39:00,25.5,23.8,30.32,WSW,247,0.0,0.0,93,0.00,,,0.00,WUHU21623XXSP,2013-01-18 08:39:00,
2013-01-18 00:44:00,25.5,23.8,30.32,WSW,247,0.0,0.0,93,0.00,,,0.00,WUHU21623XXSP,2013-01-18 08:44:00,
2013-01-18 00:49:00,25.5,23.8,30.32,WSW,247,0.0,0.0,93,0.00,,,0.00,WUHU21623XXSP,2013-01-18 08:49:00,
2013-01-18 00:54:00,25.5,23.8,30.32,WSW,247,0.0,0.0,93,0.00,,,0.00,WUHU21623XXSP,2013-01-18 08:54:00,
2013-01-18 00:59:00,25.5,23.8,30.32,WSW,247,0.0,0.0,93,0.00,,,0.00,WUHU21623XXSP,2013-01-18 08:59:00,
2013-01-18 01:04:00,25.5,23.8,30.32,WSW,247,0.0,0.0,93,0.00,,,0.00,WUHU21623XXSP,2013-01-18 09:04:00,
2013-01-18 01:09:00,25.5,23.8,30.32,WSW,247,0.0,0.0,93,0.00,,,0.00,WUHU21623XXSP,2013-01-18 09:09:00,
2013-01-18 01:14:00,25.5,23.8,30.32,WSW,247,0.0,0.0,93,0.00,,,0.00,WUHU21623XXSP,2013-01-18 09:14:00,
2013-01-18 01:19:00,25.5,23.8,30.32,WSW,247,0.0,0.0,93,0.00,,,0.00,WUHU21623XXSP,2013-01-18 09:19:00,
2013-01-18 01:24:00,25.3,23.6,30.32,WSW,247,0.0,0.0,93,0.00,,,0.00,WUHU21623XXSP,2013-01-18 09:24:00,
2013-01-18 01:29:00,25.5,23.8,30.32,WSW,247,0.0,0.0,93,0.00,,,0.00,WUHU21623XXSP,2013-01-18 09:29:00,
2013-01-18 01:34:00,25.5,23.8,30.32,WSW,247,0.0,0.0,93,0.00,,,0.00,WUHU21623XXSP,2013-01-18 09:34:00,
2013-01-18 01:39:00,25.5,23.8,30.32,WSW,247,0.0,0.0,93,0.00,,,0.00,WUHU21623XXSP,2013-01-18 09:39:00,
2013-01-18 01:44:00,25.3,23.6,30.32,WSW,247,0.0,0.0,93,0.00,,,0.00,WUHU21623XXSP,2013-01-18 09:44:00,
2013-01-18 01:49:00,25.2,23.4,30.32,WSW,247,0.0,0.0,93,0.00,,,0.00,WUHU21623XXSP,2013-01-18 09:49:00,
2013-01-18 01:54:00,25.2,23.4,30.32,WSW,247,0.0,0.0,93,0.00,,,0.00,WUHU21623XXSP,2013-01-18 09:54:00,
2013-01-18 01:59:00,25.2,23.4,30.32,WSW,247,0.0,0.0,93,0.00,,,0.00,WUHU21623XXSP,2013-01-18 09:59:00,
2013-01-18 02:07:00,25.2,23.4,30.32,WSW,247,0.0,0.0,93,0.00,,,0.00,WUHU21623XXSP,2013-01-18 10:07:00,
2013-01-18 02:12:00,25.0,23.2,30.32,WSW,247,0.0,0.0,93,0.00,,,0.00,WUHU21623XXSP,2013-01-18 10:12:00,
2013-01-18 02:17:00,25.0,23.2,30.33,WNW,292,0.0,1.8,93,0.00,,,0.00,WUHU21623XXSP,2013-01-18 10:17:00,
2013-01-18 02:22:00,25.0,23.2,30.33,WNW,292,0.0,2.2,93,0.00,,,0.00,WUHU21623XXSP,2013-01-18 10:22:00,
2013-01-18 02:27:00,25.0,23.2,30.33,WNW,292,0.0,2.2,93,0.00,,,0.00,WUHU21623XXSP,2013-01-18 10:27:00,
2013-01-18 02:32:00,24.6,22.9,30.33,WNW,292,0.0,1.1,93,0.00,,,0.00,WUHU21623XXSP,2013-01-18 10:32:00,
2013-01-18 02:37:00,24.8,23.0,30.33,East,90,0.0,2.9,93,0.00,,,0.00,WUHU21623XXSP,2013-01-18 10:37:00,
2013-01-18 02:42:00,25.0,23.2,30.33,WNW,292,0.0,2.9,93,0.00,,,0.00,WUHU21623XXSP,2013-01-18 10:42:00,
2013-01-18 02:47:00,25.0,23.2,30.33,WNW,292,0.0,2.5,93,0.00,,,0.00,WUHU21623XXSP,2013-01-18 10:47:00,
2013-01-18 02:52:00,24.6,22.9,30.33,WNW,292,0.0,0.0,93,0.00,,,0.00,WUHU21623XXSP,2013-01-18 10:52:00,
2013-01-18 02:54:00,24.6,22.9,30.33,NE,45,0.0,0.0,93,0.00,,,0.00,WUHU21623XXSP,2013-01-18 10:54:00,
2013-01-18 02:57:00,24.6,22.9,30.33,NE,45,0.0,0.0,93,0.00,,,0.00,WUHU21623XXSP,2013-01-18 10:57:00,
2013-01-18 03:02:00,24.6,22.9,30.33,NE,45,0.0,0.0,93,0.00,,,0.00,WUHU21623XXSP,2013-01-18 11:02:00,
2013-01-18 03:07:00,24.6,22.9,30.32,ENE,67,0.0,0.0,93,0.00,,,0.00,WUHU21623XXSP,2013-01-18 11:07:00,
2013-01-18 03:12:00,24.6,22.9,30.32,ENE,67,0.0,0.0,93,0.00,,,0.00,WUHU21623XXSP,2013-01-18 11:12:00,
2013-01-18 03:17:00,24.4,22.7,30.32,ENE,67,0.0,0.0,93,0.00,,,0.00,WUHU21623XXSP,2013-01-18 11:17:00,
2013-01-18 03:22:00,24.4,22.7,30.32,ENE,67,0.0,0.0,93,0.00,,,0.00,WUHU21623XXSP,2013-01-18 11:22:00,
2013-01-18 03:27:00,24.4,22.7,30.32,ENE,67,0.0,0.0,93,0.00,,,0.00,WUHU21623XXSP,2013-01-18 11:27:00,
2013-01-18 03:32:00,24.4,22.7,30.32,ENE,67,0.0,0.0,93,0.00,,,0.00,WUHU21623XXSP,2013-01-18 11:32:00,
2013-01-18 03:37:00,24.1,22.3,30.32,ENE,67,0.0,0.0,93,0.00,,,0.00,WUHU21623XXSP,2013-01-18 11:37:00,
2013-01-18 03:42:00,24.1,22.3,30.31,ENE,67,0.0,0.0,93,0.00,,,0.00,WUHU21623XXSP,2013-01-18 11:42:00,
2013-01-18 03:47:00,24.1,22.3,30.31,ENE,67,0.0,0.0,93,0.00,,,0.00,WUHU21623XXSP,2013-01-18 11:47:00,
2013-01-18 03:52:00,24.1,22.3,30.31,ENE,67,0.0,0.0,93,0.00,,,0.00,WUHU21623XXSP,2013-01-18 11:52:00,
2013-01-18 03:54:00,23.9,22.1,30.31,ENE,67,0.0,0.0,93,0.00,,,0.00,WUHU21623XXSP,2013-01-18 11:54:00,
2013-01-18 03:57:00,23.9,22.1,30.31,ENE,67,0.0,0.0,93,0.00,,,0.00,WUHU21623XXSP,2013-01-18 11:57:00,
2013-01-18 04:02:00,23.9,22.1,30.31,ENE,67,0.0,0.0,93,0.00,,,0.00,WUHU21623XXSP,2013-01-18 12:02:00,
2013-01-18 04:15:00,23.9,22.1,30.31,ENE,67,0.0,0.0,93,0.00,,,0.00,WUHU21623XXSP,2013-01-18 12:15:00,
2013-01-18 04:20:00,23.5,21.8,30.30,ENE,67,0.0,0.0,93,0.00,,,0.00,WUHU21623XXSP,2013-01-18 12:20:00,
2013-01-18 04:25:00,23.5,21.8,30.30,ENE,67,0.0,0.0,93,0.00,,,0.00,WUHU21623XXSP,2013-01-18 12:25:00,
2013-01-18 04:30:00,23.5,21.8,30.30,ENE,67,0.0,0.0,93,0.00,,,0.00,WUHU21623XXSP,2013-01-18 12:30:00,
2013-01-18 04:35:00,23.5,21.8,30.30,WNW,292,0.0,1.8,93,0.00,,,0.00,WUHU21623XXSP,2013-01-18 12:35:00,
2013-01-18 04:40:00,23.5,21.8,30.30,NW,315,0.0,1.8,93,0.00,,,0.00,WUHU21623XXSP,2013-01-18 12:40:00,
2013-01-18 04:45:00,23.4,21.6,30.30,NW,315,0.0,0.9,93,0.00,,,0.00,WUHU21623XXSP,2013-01-18 12:45:00,
2013-01-18 04:50:00,23.4,21.6,30.30,NW,315,0.0,0.0,93,0.00,,,0.00,WUHU21623XXSP,2013-01-18 12:50:00,
2013-01-18 04:54:00,23.2,21.4,30.30,NW,315,0.0,0.0,93,0.00,,,0.00,WUHU21623XXSP,2013-01-18 12:54:00,
2013-01-18 04:55:00,23.4,21.6,30.30,NW,315,0.0,0.0,93,0.00,,,0.00,WUHU21623XXSP,2013-01-18 12:55:00,
2013-01-18 05:00:00,23.2,21.4,30.30,NW,315,0.0,0.0,93,0.00,,,0.00,WUHU21623XXSP,2013-01-18 13:00:00,
2013-01-18 05:07:00,23.4,21.6,30.30,NW,315,0.0,0.0,93,0.00,,,0.00,WUHU21623XXSP,2013-01-18 13:07:00,
2013-01-18 05:12:00,23.0,21.2,30.31,NW,315,0.0,0.0,93,0.00,,,0.00,WUHU21623XXSP,2013-01-18 13:12:00,
2013-01-18 05:17:00,23.0,21.2,30.31,NW,315,0.0,0.0,93,0.00,,,0.00,WUHU21623XXSP,2013-01-18 13:17:00,
2013-01-18 05:22:00,23.2,21.7,30.30,NW,315,0.0,0.0,94,0.00,,,0.00,WUHU21623XXSP,2013-01-18 13:22:00,
2013-01-18 05:27:00,23.0,21.2,30.30,NW,315,0.0,0.0,93,0.00,,,0.00,WUHU21623XXSP,2013-01-18 13:27:00,
2013-01-18 05:32:00,22.8,21.1,30.31,NW,315,0.0,0.0,93,0.00,,,0.00,WUHU21623XXSP,2013-01-18 13:32:00,
2013-01-18 05:37:00,22.8,21.1,30.31,NW,315,0.0,0.0,93,0.00,,,0.00,WUHU21623XXSP,2013-01-18 13:37:00,
2013-01-18 05:42:00,22.8,21.1,30.30,NW,315,1.1,1.3,93,0.00,,,0.00,WUHU21623XXSP,2013-01-18 13:42:00,
2013-01-18 05:47:00,22.8,21.1,30.31,NW,315,0.0,2.2,93,0.00,,,0.00,WUHU21623XXSP,2013-01-18 13:47:00,
2013-01-18 05:52:00,22.8,21.1,30.30,NW,315,0.0,2.2,93,0.00,,,0.00,WUHU21623XXSP,2013-01-18 13:52:00,
2013-01-18 05:57:00,22.6,20.9,30.31,NW,315,0.0,0.0,93,0.00,,,0.00,WUHU21623XXSP,2013-01-18 13:57:00,
2013-01-18 06:02:00,22.6,20.9,30.30,NW,315,0.0,0.0,93,0.00,,,0.00,WUHU21623XXSP,2013-01-18 14:02:00,
2013-01-18 06:07:00,22.6,20.9,30.30,NW,315,0.0,0.0,93,0.00,,,0.00,WUHU21623XXSP,2013-01-18 14:07:00,
2013-01-18 06:12:00,22.5,20.7,30.30,NW,315,0.0,0.0,93,0.00,,,0.00,WUHU21623XXSP,2013-01-18 14:12:00,
2013-01-18 06:17:00,22.3,20.5,30.30,NW,315,0.0,0.0,93,0.00,,,0.00,WUHU21623XXSP,2013-01-18 14:17:00,
2013-01-18 06:22:00,22.3,20.5,30.30,NW,315,0.0,0.0,93,0.00,,,0.00,WUHU21623XXSP,2013-01-18 14:22:00,
2013-01-18 06:27:00,22.1,20.3,30.29,NW,315,0.0,0.0,93,0.00,,,0.00,WUHU21623XXSP,2013-01-18 14:27:00,
2013-01-18 06:32:00,22.1,20.3,30.29,NW,315,0.0,0.0,93,0.00,,,0.00,WUHU21623XXSP,2013-01-18 14:32:00,
2013-01-18 06:37:00,21.9,20.2,30.29,NW,315,0.0,0.0,93,0.00,,,0.00,WUHU21623XXSP,2013-01-18 14:37:00,
2013-01-18 06:42:00,21.9,20.2,30.29,NW,315,0.0,0.0,93,0.00,,,0.00,WUHU21623XXSP,2013-01-18 14:42:00,
2013-01-18 06:47:00,21.9,20.2,30.29,NW,315,0.0,0.0,93,0.00,,,0.00,WUHU21623XXSP,2013-01-18 14:47:00,
2013-01-18 06:52:00,21.9,20.2,30.29,NW,315,0.0,0.0,93,0.00,,,0.00,WUHU21623XXSP,2013-01-18 14:52:00,
2013-01-18 06:57:00,21.9,20.2,30.30,NW,315,0.0,0.0,93,0.00,,,0.00,WUHU21623XXSP,2013-01-18 14:57:00,
2013-01-18 07:02:00,21.9,20.2,30.30,NW,315,0.0,0.0,93,0.00,,,0.00,WUHU21623XXSP,2013-01-18 15:02:00,
2013-01-18 07:07:00,21.9,20.2,30.30,NW,315,0.0,0.0,93,0.00,,,0.00,WUHU21623XXSP,2013-01-18 15:07:00,
2013-01-18 07:12:00,21.9,20.2,30.30,NW,315,0.0,0.0,93,0.00,,,0.00,WUHU21623XXSP,2013-01-18 15:12:00,
2013-01-18 07:17:00,21.9,20.2,30.30,NW,315,0.0,0.0,93,0.00,,,0.00,WUHU21623XXSP,2013-01-18 15:17:00,
2013-01-18 07:22:00,21.9,20.2,30.30,NW,315,0.0,0.0,93,0.00,,,0.00,WUHU21623XXSP,2013-01-18 15:22:00,
2013-01-18 07:27:00,21.9,20.2,30.29,NW,315,0.0,0.0,93,0.00,,,0.00,WUHU21623XXSP,2013-01-18 15:27:00,
2013-01-18 07:32:00,21.9,20.2,30.29,NW,315,0.0,0.0,93,0.00,,,0.00,WUHU21623XXSP,2013-01-18 15:32:00,
2013-01-18 07:37:00,21.9,20.2,30.30,NW,315,0.0,0.0,93,0.00,,,0.00,WUHU21623XXSP,2013-01-18 15:37:00,
2013-01-18 07:42:00,21.7,20.0,30.29,NW,315,0.0,0.0,93,0.00,,,0.00,WUHU21623XXSP,2013-01-18 15:42:00,
2013-01-18 07:47:00,21.7,20.0,30.29,NW,315,0.0,0.0,93,0.00,,,0.00,WUHU21623XXSP,2013-01-18 15:47:00,
2013-01-18 07:52:00,21.6,19.8,30.30,NW,315,0.0,0.0,93,0.00,,,0.00,WUHU21623XXSP,2013-01-18 15:52:00,
2013-01-18 07:57:00,21.6,19.8,30.30,NW,315,0.0,0.0,93,0.00,,,0.00,WUHU21623XXSP,2013-01-18 15:57:00,
2013-01-18 08:02:00,21.6,19.8,30.30,NW,315,0.0,0.0,93,0.00,,,0.00,WUHU21623XXSP,2013-01-18 16:02:00,
2013-01-18 08:07:00,21.6,19.8,30.30,NW,315,0.0,0.0,93,0.00,,,0.00,WUHU21623XXSP,2013-01-18 16:07:00,
2013-01-18 08:12:00,21.4,19.6,30.30,NW,315,0.0,0.0,93,0.00,,,0.00,WUHU21623XXSP,2013-01-18 16:12:00,
2013-01-18 08:17:00,21.4,19.6,30.30,NW,315,0.0,0.0,93,0.00,,,0.00,WUHU21623XXSP,2013-01-18 16:17:00,
2013-01-18 08:22:00,21.6,19.8,30.32,NW,315,0.0,0.0,93,0.00,,,0.00,WUHU21623XXSP,2013-01-18 16:22:00,
2013-01-18 08:27:00,21.6,19.8,30.32,NW,315,0.0,0.0,93,0.00,,,0.00,WUHU21623XXSP,2013-01-18 16:27:00,
2013-01-18 08:32:00,21.6,19.8,30.32,NW,315,0.0,0.0,93,0.00,,,0.00,WUHU21623XXSP,2013-01-18 16:32:00,
2013-01-18 08:38:00,21.6,19.8,30.32,NW,315,0.0,0.0,93,0.00,,,0.00,WUHU21623XXSP,2013-01-18 16:38:00,
2013-01-18 08:43:00,21.7,20.0,30.33,NW,315,0.0,0.0,93,0.00,,,0.00,WUHU21623XXSP,2013-01-18 16:43:00,
2013-01-18 08:48:00,21.9,20.2,30.32,NW,315,0.0,0.0,93,0.00,,,0.00,WUHU21623XXSP,2013-01-18 16:48:00,
2013-01-18 08:53:00,22.3,20.5,30.33,NW,315,0.0,0.0,93,0.00,,,0.00,WUHU21623XXSP,2013-01-18 16:53:00,
2013-01-18 08:58:00,22.6,20.9,30.33,NW,315,0.0,0.0,93,0.00,,,0.00,WUHU21623XXSP,2013-01-18 16:58:00,
2013-01-18 09:03:00,23.0,21.2,30.33,NW,315,0.0,0.0,93,0.00,,,0.00,WUHU21623XXSP,2013-01-18 17:03:00,
2013-01-18 09:08:00,23.4,21.8,30.33,NW,315,0.0,0.0,94,0.00,,,0.00,WUHU21623XXSP,2013-01-18 17:08:00,
2013-01-18 09:13:00,23.7,22.2,30.33,NW,315,0.0,0.0,94,0.00,,,0.00,WUHU21623XXSP,2013-01-18 17:13:00,
2013-01-18 09:18:00,24.4,22.9,30.33,NW,315,0.0,0.0,94,0.00,,,0.00,WUHU21623XXSP,2013-01-18 17:18:00,
2013-01-18 09:23:00,24.6,23.1,30.33,NW,315,0.0,0.0,94,0.00,,,0.00,WUHU21623XXSP,2013-01-18 17:23:00,
2013-01-18 09:28:00,25.0,23.5,30.33,NW,315,0.0,0.0,94,0.00,,,0.00,WUHU21623XXSP,2013-01-18 17:28:00,
2013-01-18 09:33:00,25.3,23.8,30.33,NW,315,0.0,0.0,94,0.00,,,0.00,WUHU21623XXSP,2013-01-18 17:33:00,
2013-01-18 09:38:00,25.5,24.0,30.33,NW,315,0.0,0.0,94,0.00,,,0.00,WUHU21623XXSP,2013-01-18 17:38:00,
2013-01-18 09:43:00,26.1,24.5,30.34,NW,315,0.0,0.0,94,0.00,,,0.00,WUHU21623XXSP,2013-01-18 17:43:00,
2013-01-18 09:48:00,26.4,24.9,30.34,NW,315,0.0,0.0,94,0.00,,,0.00,WUHU21623XXSP,2013-01-18 17:48:00,
2013-01-18 09:53:00,26.8,25.3,30.34,NW,315,0.0,0.0,94,0.00,,,0.00,WUHU21623XXSP,2013-01-18 17:53:00,
2013-01-18 09:58:00,27.1,25.6,30.32,NW,315,0.0,0.0,94,0.00,,,0.00,WUHU21623XXSP,2013-01-18 17:58:00,
2013-01-18 10:03:00,27.9,26.3,30.34,NW,315,0.0,0.0,94,0.00,,,0.00,WUHU21623XXSP,2013-01-18 18:03:00,
2013-01-18 10:08:00,28.4,26.9,30.33,NW,315,0.0,0.0,94,0.00,,,0.00,WUHU21623XXSP,2013-01-18 18:08:00,
2013-01-18 10:13:00,28.9,27.4,30.33,NW,315,0.0,0.0,94,0.00,,,0.00,WUHU21623XXSP,2013-01-18 18:13:00,
2013-01-18 10:18:00,29.3,27.8,30.33,NW,315,0.0,0.0,94,0.00,,,0.00,WUHU21623XXSP,2013-01-18 18:18:00,
2013-01-18 10:23:00,29.7,28.4,30.34,NW,315,0.0,0.0,95,0.00,,,0.00,WUHU21623XXSP,2013-01-18 18:23:00,
2013-01-18 10:28:00,30.2,28.9,30.33,NW,315,0.0,0.0,95,0.00,,,0.00,WUHU21623XXSP,2013-01-18 18:28:00,
2013-01-18 10:33:00,30.7,29.5,30.33,NW,315,0.0,0.0,95,0.00,,,0.00,WUHU21623XXSP,2013-01-18 18:33:00,
2013-01-18 10:38:00,31.3,30.0,30.33,NW,315,0.0,0.0,94,0.00,,,0.00,WUHU21623XXSP,2013-01-18 18:38:00,
2013-01-18 10:43:00,31.8,30.6,30.33,NW,315,0.0,0.0,95,0.00,,,0.00,WUHU21623XXSP,2013-01-18 18:43:00,
2013-01-18 10:48:00,32.5,31.2,30.33,NW,315,0.0,0.0,95,0.00,,,0.00,WUHU21623XXSP,2013-01-18 18:48:00,
2013-01-18 10:53:00,33.4,32.1,30.32,West,270,0.0,0.0,95,0.00,,,0.00,WUHU21623XXSP,2013-01-18 18:53:00,
2013-01-18 10:58:00,34.3,32.8,30.32,West,270,0.0,0.0,95,0.00,,,0.00,WUHU21623XXSP,2013-01-18 18:58:00,
2013-01-18 11:03:00,34.7,33.4,30.32,South,180,0.0,0.0,95,0.00,,,0.00,WUHU21623XXSP,2013-01-18 19:03:00,
2013-01-18 11:08:00,35.2,33.9,30.32,South,180,0.0,0.0,95,0.00,,,0.00,WUHU21623XXSP,2013-01-18 19:08:00,
2013-01-18 11:13:00,35.8,34.4,30.32,South,180,0.0,0.0,95,0.00,,,0.00,WUHU21623XXSP,2013-01-18 19:13:00,
2013-01-18 11:18:00,36.1,34.8,30.32,SSW,202,0.0,0.0,95,0.00,,,0.00,WUHU21623XXSP,2013-01-18 19:18:00,
2013-01-18 11:23:00,36.7,35.3,30.32,SSW,202,0.0,0.0,95,0.00,,,0.00,WUHU21623XXSP,2013-01-18 19:23:00,
2013-01-18 11:28:00,37.0,35.7,30.32,SSW,202,0.0,0.0,95,0.00,,,0.00,WUHU21623XXSP,2013-01-18 19:28:00,
2013-01-18 11:33:00,37.2,35.9,30.33,SSW,202,0.0,0.0,95,0.00,,,0.00,WUHU21623XXSP,2013-01-18 19:33:00,
2013-01-18 11:38:00,37.4,36.0,30.32,SSW,202,0.0,0.0,95,0.00,,,0.00,WUHU21623XXSP,2013-01-18 19:38:00,
2013-01-18 11:43:00,37.6,36.2,30.32,SSW,202,0.0,0.0,95,0.00,,,0.00,WUHU21623XXSP,2013-01-18 19:43:00,
2013-01-18 11:48:00,37.9,36.6,30.32,SW,225,0.0,0.0,95,0.00,,,0.00,WUHU21623XXSP,2013-01-18 19:48:00,
2013-01-18 11:53:00,38.3,37.0,30.32,SSW,202,0.0,0.0,95,0.00,,,0.00,WUHU21623XXSP,2013-01-18 19:53:00,
2013-01-18 11:58:00,38.5,37.1,30.32,SE,135,0.0,0.0,95,0.00,,,0.00,WUHU21623XXSP,2013-01-18 19:58:00,
2013-01-18 12:03:00,38.8,37.5,30.33,SSW,202,0.0,0.0,95,0.00,,,0.00,WUHU21623XXSP,2013-01-18 20:03:00,
2013-01-18 12:08:00,39.4,38.0,30.33,SW,225,0.0,0.0,95,0.00,,,0.00,WUHU21623XXSP,2013-01-18 20:08:00,
2013-01-18 12:13:00,39.7,38.4,30.32,SSE,157,0.0,0.0,95,0.00,,,0.00,WUHU21623XXSP,2013-01-18 20:13:00,
2013-01-18 12:18:00,40.1,38.5,30.32,South,180,0.0,0.0,94,0.00,,,0.00,WUHU21623XXSP,2013-01-18 20:18:00,
2013-01-18 12:23:00,40.8,39.2,30.32,SSW,202,0.0,0.0,94,0.00,,,0.00,WUHU21623XXSP,2013-01-18 20:23:00,
2013-01-18 12:28:00,41.5,39.6,30.32,SSW,202,0.0,0.0,93,0.00,,,0.00,WUHU21623XXSP,2013-01-18 20:28:00,
2013-01-18 12:33:00,42.1,40.2,30.32,South,180,0.0,0.0,93,0.00,,,0.00,WUHU21623XXSP,2013-01-18 20:33:00,
2013-01-18 12:38:00,42.6,40.5,30.32,SSW,202,0.0,0.0,92,0.00,,,0.00,WUHU21623XXSP,2013-01-18 20:38:00,
2013-01-18 12:43:00,43.0,40.5,30.32,SSW,202,0.0,0.0,91,0.00,,,0.00,WUHU21623XXSP,2013-01-18 20:43:00,
2013-01-18 12:48:00,43.3,40.6,30.32,SSW,202,0.0,0.0,90,0.00,,,0.00,WUHU21623XXSP,2013-01-18 20:48:00,
2013-01-18 12:53:00,43.5,40.5,30.32,SSW,202,0.0,0.0,89,0.00,,,0.00,WUHU21623XXSP,2013-01-18 20:53:00,
2013-01-18 12:58:00,43.7,40.4,30.32,SW,225,0.0,0.0,88,0.00,,,0.00,WUHU21623XXSP,2013-01-18 20:58:00,
2013-01-18 13:03:00,44.1,40.4,30.33,South,180,0.0,0.0,87,0.00,,,0.00,WUHU21623XXSP,2013-01-18 21:03:00,
2013-01-18 13:08:00,44.2,40.6,30.33,South,180,0.9,3.1,87,0.00,,,0.00,WUHU21623XXSP,2013-01-18 21:08:00,
2013-01-18 13:13:00,44.4,40.5,30.32,South,180,1.3,3.1,86,0.00,,,0.00,WUHU21623XXSP,2013-01-18 21:13:00,
2013-01-18 13:18:00,44.4,40.2,30.32,SSW,202,1.3,4.5,85,0.00,,,0.00,WUHU21623XXSP,2013-01-18 21:18:00,
2013-01-18 13:23:00,44.6,40.4,30.32,SSE,157,1.6,4.5,85,0.00,,,0.00,WUHU21623XXSP,2013-01-18 21:23:00,
2013-01-18 13:28:00,44.8,40.2,30.32,SSW,202,2.9,3.8,84,0.00,,,0.00,WUHU21623XXSP,2013-01-18 21:28:00,
2013-01-18 13:33:00,44.8,39.9,30.32,WSW,247,1.1,4.0,83,0.00,,,0.00,WUHU21623XXSP,2013-01-18 21:33:00,
2013-01-18 13:38:00,44.6,39.8,30.32,South,180,3.1,4.0,83,0.00,,,0.00,WUHU21623XXSP,2013-01-18 21:38:00,
2013-01-18 13:43:00,44.6,39.5,30.31,SW,225,0.0,3.6,82,0.00,,,0.00,WUHU21623XXSP,2013-01-18 21:43:00,
2013-01-18 13:48:00,44.4,39.3,30.31,South,180,0.0,4.5,82,0.00,,,0.00,WUHU21623XXSP,2013-01-18 21:48:00,
2013-01-18 13:53:00,44.1,38.9,30.32,SSW,202,1.6,4.7,82,0.00,,,0.00,WUHU21623XXSP,2013-01-18 21:53:00,
2013-01-18 13:58:00,43.9,38.4,30.31,SSW,202,0.0,4.7,81,0.00,,,0.00,WUHU21623XXSP,2013-01-18 21:58:00,
2013-01-18 14:03:00,43.7,38.2,30.32,SSW,202,0.0,4.7,81,0.00,,,0.00,WUHU21623XXSP,2013-01-18 22:03:00,
2013-01-18 14:08:00,43.5,38.1,30.32,South,180,2.9,2.9,81,0.00,,,0.00,WUHU21623XXSP,2013-01-18 22:08:00,
2013-01-18 14:13:00,43.5,38.1,30.31,SSW,202,0.0,2.9,81,0.00,,,0.00,WUHU21623XXSP,2013-01-18 22:13:00,
2013-01-18 14:18:00,43.5,38.1,30.31,South,180,0.0,3.4,81,0.00,,,0.00,WUHU21623XXSP,2013-01-18 22:18:00,
2013-01-18 14:23:00,43.3,37.9,30.32,South,180,0.0,3.4,81,0.00,,,0.00,WUHU21623XXSP,2013-01-18 22:23:00,
2013-01-18 14:28:00,43.3,37.7,30.31,South,180,3.1,4.3,81,0.00,,,0.00,WUHU21623XXSP,2013-01-18 22:28:00,
2013-01-18 14:34:00,43.0,37.5,30.32,South,180,1.8,4.3,81,0.00,,,0.00,WUHU21623XXSP,2013-01-18 22:34:00,
2013-01-18 14:38:00,43.0,37.5,30.32,SSE,157,0.0,4.0,81,0.00,,,0.00,WUHU21623XXSP,2013-01-18 22:38:00,
2013-01-18 14:43:00,42.6,37.2,30.32,South,180,0.0,4.0,81,0.00,,,0.00,WUHU21623XXSP,2013-01-18 22:43:00,
2013-01-18 14:48:00,42.4,37.0,30.32,South,180,0.7,4.0,81,0.00,,,0.00,WUHU21623XXSP,2013-01-18 22:48:00,
2013-01-18 14:54:00,42.1,36.6,30.32,South,180,0.0,6.0,81,0.00,,,0.00,WUHU21623XXSP,2013-01-18 22:54:00,
2013-01-18 14:59:00,42.1,36.6,30.32,SSE,157,2.7,6.0,81,0.00,,,0.00,WUHU21623XXSP,2013-01-18 22:59:00,
2013-01-18 15:04:00,41.7,36.3,30.32,South,180,0.0,3.4,81,0.00,,,0.00,WUHU21623XXSP,2013-01-18 23:04:00,
2013-01-18 15:09:00,41.5,35.8,30.32,SW,225,3.8,4.5,80,0.00,,,0.00,WUHU21623XXSP,2013-01-18 23:09:00,
2013-01-18 15:14:00,40.8,35.1,30.32,South,180,0.0,4.5,80,0.00,,,0.00,WUHU21623XXSP,2013-01-18 23:14:00,
2013-01-18 15:19:00,40.6,34.9,30.32,South,180,0.0,2.9,80,0.00,,,0.00,WUHU21623XXSP,2013-01-18 23:19:00,
2013-01-18 15:24:00,40.1,34.7,30.32,South,180,0.0,2.0,81,0.00,,,0.00,WUHU21623XXSP,2013-01-18 23:24:00,
2013-01-18 15:29:00,39.7,34.4,30.32,South,180,0.0,2.0,81,0.00,,,0.00,WUHU21623XXSP,2013-01-18 23:29:00,
2013-01-18 15:34:00,39.4,34.1,30.33,South,180,0.0,2.0,81,0.00,,,0.00,WUHU21623XXSP,2013-01-18 23:34:00,
2013-01-18 15:39:00,39.0,34.0,30.33,South,180,1.3,2.0,82,0.00,,,0.00,WUHU21623XXSP,2013-01-18 23:39:00,
2013-01-18 15:44:00,39.0,34.0,30.33,South,180,0.0,1.6,82,0.00,,,0.00,WUHU21623XXSP,2013-01-18 23:44:00,
2013-01-18 15:49:00,38.5,33.5,30.32,South,180,0.0,0.0,82,0.00,,,0.00,WUHU21623XXSP,2013-01-18 23:49:00,
2013-01-18 15:54:00,38.3,33.3,30.33,South,180,0.0,0.0,82,0.00,,,0.00,WUHU21623XXSP,2013-01-18 23:54:00,
2013-01-18 15:59:00,37.9,32.9,30.33,NNE,22,0.0,1.3,82,0.00,,,0.00,WUHU21623XXSP,2013-01-18 23:59:00,
2013-01-18 16:04:00,37.2,32.5,30.33,NE,45,0.0,1.6,83,0.00,,,0.00,WUHU21623XXSP,2013-01-19 00:04:00,
2013-01-18 16:09:00,36.5,31.8,30.33,NNE,22,0.0,1.8,83,0.00,,,0.00,WUHU21623XXSP,2013-01-19 00:09:00,
2013-01-18 16:14:00,35.8,31.4,30.34,NNW,337,0.0,3.6,84,0.00,,,0.00,WUHU21623XXSP,2013-01-19 00:14:00,
2013-01-18 16:19:00,35.2,31.1,30.34,NNW,337,0.0,3.6,85,0.00,,,0.00,WUHU21623XXSP,2013-01-19 00:19:00,
2013-01-18 16:24:00,34.7,30.6,30.33,North,0,0.0,2.5,85,0.00,,,0.00,WUHU21623XXSP,2013-01-19 00:24:00,
2013-01-18 16:29:00,34.3,30.5,30.33,NW,315,1.1,3.4,86,0.00,,,0.00,WUHU21623XXSP,2013-01-19 00:29:00,
2013-01-18 16:34:00,34.2,30.6,30.33,WNW,292,0.0,3.4,87,0.00,,,0.00,WUHU21623XXSP,2013-01-19 00:34:00,
2013-01-18 16:39:00,34.0,30.4,30.33,WNW,292,0.0,1.8,87,0.00,,,0.00,WUHU21623XXSP,2013-01-19 00:39:00,
2013-01-18 16:44:00,33.8,30.2,30.33,NNE,22,0.0,2.7,87,0.00,,,0.00,WUHU21623XXSP,2013-01-19 00:44:00,
2013-01-18 16:49:00,33.6,30.4,30.33,NNE,22,0.0,2.7,88,0.00,,,0.00,WUHU21623XXSP,2013-01-19 00:49:00,
2013-01-18 16:54:00,33.6,30.4,30.33,ENE,67,0.9,2.2,88,0.00,,,0.00,WUHU21623XXSP,2013-01-19 00:54:00,
2013-01-18 16:59:00,33.4,30.2,30.33,NE,45,0.7,2.2,88,0.00,,,0.00,WUHU21623XXSP,2013-01-19 00:59:00,
2013-01-18 17:04:00,33.1,30.2,30.34,NNE,22,0.0,2.2,89,0.00,,,0.00,WUHU21623XXSP,2013-01-19 01:04:00,
2013-01-18 17:09:00,32.9,30.0,30.33,ESE,112,0.0,2.2,89,0.00,,,0.00,WUHU21623XXSP,2013-01-19 01:09:00,
2013-01-18 17:14:00,32.7,29.8,30.33,NNE,22,0.0,2.7,89,0.00,,,0.00,WUHU21623XXSP,2013-01-19 01:14:00,
2013-01-18 17:19:00,32.5,29.7,30.34,NNE,22,0.0,2.7,89,0.00,,,0.00,WUHU21623XXSP,2013-01-19 01:19:00,
2013-01-18 17:24:00,32.4,29.8,30.34,NNE,22,0.0,1.3,90,0.00,,,0.00,WUHU21623XXSP,2013-01-19 01:24:00,
2013-01-18 17:29:00,32.2,29.6,30.34,NNE,22,0.0,1.6,90,0.00,,,0.00,WUHU21623XXSP,2013-01-19 01:29:00,
2013-01-18 17:34:00,32.2,29.6,30.34,NNE,22,0.7,1.6,90,0.00,,,0.00,WUHU21623XXSP,2013-01-19 01:34:00,
2013-01-18 17:39:00,31.8,29.3,30.34,NE,45,0.0,2.0,90,0.00,,,0.00,WUHU21623XXSP,2013-01-19 01:39:00,
2013-01-18 17:44:00,31.8,29.3,30.34,NE,45,0.7,3.6,90,0.00,,,0.00,WUHU21623XXSP,2013-01-19 01:44:00,
2013-01-18 17:49:00,31.8,29.6,30.34,NE,45,0.0,3.6,91,0.00,,,0.00,WUHU21623XXSP,2013-01-19 01:49:00,
2013-01-18 17:54:00,31.6,29.4,30.34,NE,45,0.0,2.5,91,0.00,,,0.00,WUHU21623XXSP,2013-01-19 01:54:00,
2013-01-18 17:59:00,31.6,29.4,30.34,NE,45,0.0,1.1,91,0.00,,,0.00,WUHU21623XXSP,2013-01-19 01:59:00,
2013-01-18 18:04:00,31.6,29.4,30.34,NE,45,0.0,0.7,91,0.00,,,0.00,WUHU21623XXSP,2013-01-19 02:04:00,
2013-01-18 18:09:00,31.6,29.6,30.34,NE,45,0.0,0.0,92,0.00,,,0.00,WUHU21623XXSP,2013-01-19 02:09:00,
2013-01-18 18:14:00,31.6,29.6,30.34,NE,45,0.0,0.0,92,0.00,,,0.00,WUHU21623XXSP,2013-01-19 02:14:00,
2013-01-18 18:19:00,31.8,29.8,30.34,NE,45,0.0,0.0,92,0.00,,,0.00,WUHU21623XXSP,2013-01-19 02:19:00,
2013-01-18 18:24:00,31.8,29.8,30.34,NE,45,0.0,0.0,92,0.00,,,0.00,WUHU21623XXSP,2013-01-19 02:24:00,
2013-01-18 18:29:00,31.8,29.8,30.34,NE,45,0.0,0.0,92,0.00,,,0.00,WUHU21623XXSP,2013-01-19 02:29:00,
2013-01-18 18:34:00,31.8,29.8,30.34,NE,45,0.0,0.0,92,0.00,,,0.00,WUHU21623XXSP,2013-01-19 02:34:00,
2013-01-18 18:39:00,31.8,29.8,30.34,NE,45,0.0,0.0,92,0.00,,,0.00,WUHU21623XXSP,2013-01-19 02:39:00,
2013-01-18 18:44:00,32.0,30.0,30.34,NE,45,0.0,0.0,92,0.00,,,0.00,WUHU21623XXSP,2013-01-19 02:44:00,
2013-01-18 18:49:00,31.8,29.8,30.34,NE,45,0.0,0.0,92,0.00,,,0.00,WUHU21623XXSP,2013-01-19 02:49:00,
2013-01-18 18:54:00,31.8,29.8,30.35,NE,45,0.0,0.0,92,0.00,,,0.00,WUHU21623XXSP,2013-01-19 02:54:00,
2013-01-18 18:59:00,31.8,29.8,30.34,NE,45,0.0,0.0,92,0.00,,,0.00,WUHU21623XXSP,2013-01-19 02:59:00,
2013-01-18 19:05:00,31.8,29.8,30.34,NE,45,0.0,0.0,92,0.00,,,0.00,WUHU21623XXSP,2013-01-19 03:05:00,
2013-01-18 19:10:00,31.8,29.8,30.34,NE,45,0.0,0.0,92,0.00,,,0.00,WUHU21623XXSP,2013-01-19 03:10:00,
2013-01-18 19:15:00,31.8,29.8,30.34,NE,45,0.0,0.0,92,0.00,,,0.00,WUHU21623XXSP,2013-01-19 03:15:00,
2013-01-18 19:20:00,31.8,29.8,30.34,NE,45,0.0,0.0,92,0.00,,,0.00,WUHU21623XXSP,2013-01-19 03:20:00,
2013-01-18 19:25:00,31.6,29.6,30.34,NE,45,0.0,0.0,92,0.00,,,0.00,WUHU21623XXSP,2013-01-19 03:25:00,
2013-01-18 19:30:00,31.6,29.6,30.34,NE,45,0.0,0.0,92,0.00,,,0.00,WUHU21623XXSP,2013-01-19 03:30:00,
2013-01-18 19:35:00,31.6,29.6,30.35,NE,45,0.0,0.0,92,0.00,,,0.00,WUHU21623XXSP,2013-01-19 03:35:00,
2013-01-18 19:40:00,31.6,29.6,30.35,NE,45,0.0,0.0,92,0.00,,,0.00,WUHU21623XXSP,2013-01-19 03:40:00,
2013-01-18 19:45:00,31.6,29.6,30.34,NE,45,0.0,0.0,92,0.00,,,0.00,WUHU21623XXSP,2013-01-19 03:45:00,
2013-01-18 19:50:00,31.6,29.6,30.35,NE,45,0.0,0.0,92,0.00,,,0.00,WUHU21623XXSP,2013-01-19 03:50:00,
2013-01-18 19:55:00,31.6,29.6,30.34,NE,45,0.0,0.0,92,0.00,,,0.00,WUHU21623XXSP,2013-01-19 03:55:00,
2013-01-18 20:00:00,31.6,29.4,30.34,NE,45,0.0,0.0,92,0.00,,,0.00,WUHU21623XXSP,2013-01-19 04:00:00,
2013-01-18 20:05:00,31.3,29.3,30.35,NE,45,0.0,0.0,92,0.00,,,0.00,WUHU21623XXSP,2013-01-19 04:05:00,
2013-01-18 20:10:00,31.3,29.3,30.35,NE,45,0.0,0.0,92,0.00,,,0.00,WUHU21623XXSP,2013-01-19 04:10:00,
2013-01-18 20:15:00,31.3,29.3,30.35,NE,45,0.0,0.0,92,0.00,,,0.00,WUHU21623XXSP,2013-01-19 04:15:00,
2013-01-18 20:20:00,31.3,29.3,30.35,NE,45,0.0,0.0,92,0.00,,,0.00,WUHU21623XXSP,2013-01-19 04:20:00,
2013-01-18 20:25:00,31.3,29.3,30.35,NE,45,0.0,0.0,92,0.00,,,0.00,WUHU21623XXSP,2013-01-19 04:25:00,
2013-01-18 20:30:00,31.1,29.1,30.35,NE,45,0.0,0.0,92,0.00,,,0.00,WUHU21623XXSP,2013-01-19 04:30:00,
2013-01-18 20:35:00,31.1,29.1,30.36,NE,45,0.0,0.0,92,0.00,,,0.00,WUHU21623XXSP,2013-01-19 04:35:00,
2013-01-18 20:40:00,31.1,29.1,30.36,NE,45,0.0,0.0,92,0.00,,,0.00,WUHU21623XXSP,2013-01-19 04:40:00,
2013-01-18 20:45:00,31.1,29.1,30.37,NE,45,0.0,0.0,92,0.00,,,0.00,WUHU21623XXSP,2013-01-19 04:45:00,
2013-01-18 20:50:00,31.1,29.1,30.36,NE,45,0.0,0.0,92,0.00,,,0.00,WUHU21623XXSP,2013-01-19 04:50:00,
2013-01-18 20:55:00,31.1,29.1,30.36,NE,45,0.0,0.0,92,0.00,,,0.00,WUHU21623XXSP,2013-01-19 04:55:00,
2013-01-18 21:00:00,31.1,29.1,30.36,NE,45,0.0,0.0,92,0.00,,,0.00,WUHU21623XXSP,2013-01-19 05:00:00,
2013-01-18 21:03:00,31.1,29.1,30.35,NE,45,0.0,0.0,92,0.00,,,0.00,WUHU21623XXSP,2013-01-19 05:03:00,
2013-01-18 21:08:00,31.1,29.3,30.37,NE,45,0.0,0.0,93,0.00,,,0.00,WUHU21623XXSP,2013-01-19 05:08:00,
2013-01-18 21:13:00,31.1,29.3,30.37,NE,45,0.0,0.0,93,0.00,,,0.00,WUHU21623XXSP,2013-01-19 05:13:00,
2013-01-18 21:19:00,31.1,29.3,30.37,NE,45,0.0,0.0,93,0.00,,,0.00,WUHU21623XXSP,2013-01-19 05:19:00,
2013-01-18 21:24:00,31.1,29.3,30.37,NE,45,0.0,0.0,93,0.00,,,0.00,WUHU21623XXSP,2013-01-19 05:24:00,
2013-01-18 21:29:00,31.1,29.3,30.37,NE,45,0.0,0.0,93,0.00,,,0.00,WUHU21623XXSP,2013-01-19 05:29:00,
2013-01-18 21:34:00,31.1,29.3,30.37,NE,45,0.0,0.0,93,0.00,,,0.00,WUHU21623XXSP,2013-01-19 05:34:00,
2013-01-18 21:39:00,31.1,29.3,30.38,NE,45,0.0,1.1,93,0.00,,,0.00,WUHU21623XXSP,2013-01-19 05:39:00,
2013-01-18 21:44:00,30.9,29.2,30.38,NE,45,0.0,1.1,93,0.00,,,0.00,WUHU21623XXSP,2013-01-19 05:44:00,
2013-01-18 21:49:00,30.7,29.0,30.38,NE,45,0.0,0.0,93,0.00,,,0.00,WUHU21623XXSP,2013-01-19 05:49:00,
2013-01-18 21:54:00,30.7,29.0,30.38,NE,45,0.0,0.7,93,0.00,,,0.00,WUHU21623XXSP,2013-01-19 05:54:00,
2013-01-18 21:59:00,30.7,29.0,30.38,NE,45,0.0,1.1,93,0.00,,,0.00,WUHU21623XXSP,2013-01-19 05:59:00,
2013-01-18 22:04:00,30.7,29.0,30.38,NE,45,0.0,1.1,93,0.00,,,0.00,WUHU21623XXSP,2013-01-19 06:04:00,
2013-01-18 22:09:00,30.7,29.0,30.38,NE,45,0.0,0.0,93,0.00,,,0.00,WUHU21623XXSP,2013-01-19 06:09:00,
2013-01-18 22:14:00,30.7,29.0,30.38,NE,45,0.0,0.0,93,0.00,,,0.00,WUHU21623XXSP,2013-01-19 06:14:00,
2013-01-18 22:19:00,30.7,29.0,30.38,NE,45,0.0,0.0,93,0.00,,,0.00,WUHU21623XXSP,2013-01-19 06:19:00,
2013-01-18 22:24:00,30.7,29.0,30.38,NE,45,0.0,0.0,93,0.00,,,0.00,WUHU21623XXSP,2013-01-19 06:24:00,
2013-01-18 22:29:00,30.7,29.0,30.38,NE,45,0.0,0.0,93,0.00,,,0.00,WUHU21623XXSP,2013-01-19 06:29:00,
2013-01-18 22:34:00,30.7,29.0,30.38,NE,45,0.0,0.0,93,0.00,,,0.00,WUHU21623XXSP,2013-01-19 06:34:00,
2013-01-18 22:39:00,30.7,29.0,30.38,NE,45,0.0,0.0,93,0.00,,,0.00,WUHU21623XXSP,2013-01-19 06:39:00,
2013-01-18 22:44:00,30.7,29.0,30.38,NE,45,0.0,1.8,93,0.00,,,0.00,WUHU21623XXSP,2013-01-19 06:44:00,
2013-01-18 22:49:00,30.7,29.0,30.38,NE,45,0.0,1.8,93,0.00,,,0.00,WUHU21623XXSP,2013-01-19 06:49:00,
2013-01-18 22:54:00,30.7,29.0,30.38,NE,45,0.0,0.0,93,0.00,,,0.00,WUHU21623XXSP,2013-01-19 06:54:00,
2013-01-18 22:59:00,30.7,29.0,30.38,NE,45,0.0,0.0,93,0.00,,,0.00,WUHU21623XXSP,2013-01-19 06:59:00,
2013-01-18 23:04:00,30.7,29.0,30.38,NE,45,0.0,0.0,93,0.00,,,0.00,WUHU21623XXSP,2013-01-19 07:04:00,
2013-01-18 23:09:00,30.7,29.0,30.38,NE,45,0.0,0.0,93,0.00,,,0.00,WUHU21623XXSP,2013-01-19 07:09:00,
2013-01-18 23:14:00,30.7,29.0,30.38,NE,45,0.0,0.0,93,0.00,,,0.00,WUHU21623XXSP,2013-01-19 07:14:00,
2013-01-18 23:19:00,30.7,29.0,30.38,NE,45,0.0,0.0,93,0.00,,,0.00,WUHU21623XXSP,2013-01-19 07:19:00,
2013-01-18 23:24:00,30.7,29.0,30.38,NE,45,0.0,0.0,93,0.00,,,0.00,WUHU21623XXSP,2013-01-19 07:24:00,
2013-01-18 23:29:00,30.7,29.0,30.38,NE,45,0.0,0.0,93,0.00,,,0.00,WUHU21623XXSP,2013-01-19 07:29:00,
2013-01-18 23:34:00,30.6,28.8,30.38,NE,45,0.0,0.0,93,0.00,,,0.00,WUHU21623XXSP,2013-01-19 07:34:00,
2013-01-18 23:39:00,30.6,28.8,30.38,NE,45,0.0,0.0,93,0.00,,,0.00,WUHU21623XXSP,2013-01-19 07:39:00,
2013-01-18 23:44:00,30.6,28.8,30.38,NE,45,0.0,0.0,93,0.00,,,0.00,WUHU21623XXSP,2013-01-19 07:44:00,
2013-01-18 23:49:00,30.4,28.6,30.38,NE,45,0.0,0.0,93,0.00,,,0.00,WUHU21623XXSP,2013-01-19 07:49:00,
2013-01-18 23:54:00,30.4,28.6,30.38,NE,45,0.0,0.0,93,0.00,,,0.00,WUHU21623XXSP,2013-01-19 07:54:00,
2013-01-18 23:59:00,30.4,28.6,30.38,NE,45,0.0,0.0,93,0.00,,,0.00,WUHU21623XXSP,2013-01-19 07:59:00,